sensor_id;sensor_type;location;lat;lon;timestamp;temperature;humidity
76785;SHT30;66893;44.316;0.092;2023-02-28T00:02:08;10.96;38.06
76785;SHT30;66893;44.316;0.092;2023-02-28T00:04:34;10.94;38.01
76785;SHT30;66893;44.316;0.092;2023-02-28T00:07:00;10.94;38.10
76785;SHT30;66893;44.316;0.092;2023-02-28T00:09:25;10.93;38.02
76785;SHT30;66893;44.316;0.092;2023-02-28T00:11:51;10.89;38.07
76785;SHT30;66893;44.316;0.092;2023-02-28T00:14:16;10.87;38.06
76785;SHT30;66893;44.316;0.092;2023-02-28T00:16:42;10.84;38.06
76785;SHT30;66893;44.316;0.092;2023-02-28T00:19:07;10.85;38.05
76785;SHT30;66893;44.316;0.092;2023-02-28T00:21:33;10.85;38.05
76785;SHT30;66893;44.316;0.092;2023-02-28T00:23:58;10.83;38.05
76785;SHT30;66893;44.316;0.092;2023-02-28T00:26:23;10.79;38.05
76785;SHT30;66893;44.316;0.092;2023-02-28T00:28:51;10.79;38.07
76785;SHT30;66893;44.316;0.092;2023-02-28T00:31:17;10.77;38.06
76785;SHT30;66893;44.316;0.092;2023-02-28T00:33:43;10.74;38.08
76785;SHT30;66893;44.316;0.092;2023-02-28T00:36:10;10.73;38.08
76785;SHT30;66893;44.316;0.092;2023-02-28T00:38:36;10.71;38.05
76785;SHT30;66893;44.316;0.092;2023-02-28T00:41:02;10.70;38.11
76785;SHT30;66893;44.316;0.092;2023-02-28T00:43:30;10.69;38.13
76785;SHT30;66893;44.316;0.092;2023-02-28T00:45:56;10.67;38.10
76785;SHT30;66893;44.316;0.092;2023-02-28T00:48:21;10.66;38.09
76785;SHT30;66893;44.316;0.092;2023-02-28T00:50:49;10.63;38.09
76785;SHT30;66893;44.316;0.092;2023-02-28T00:53:15;10.64;38.07
76785;SHT30;66893;44.316;0.092;2023-02-28T00:55:40;10.59;38.10
76785;SHT30;66893;44.316;0.092;2023-02-28T00:58:06;10.60;38.14
76785;SHT30;66893;44.316;0.092;2023-02-28T01:00:31;10.59;38.11
76785;SHT30;66893;44.316;0.092;2023-02-28T01:02:57;10.53;38.16
76785;SHT30;66893;44.316;0.092;2023-02-28T01:05:22;10.55;38.16
76785;SHT30;66893;44.316;0.092;2023-02-28T01:07:48;10.53;38.15
76785;SHT30;66893;44.316;0.092;2023-02-28T01:10:13;10.52;38.18
76785;SHT30;66893;44.316;0.092;2023-02-28T01:12:38;10.50;38.21
76785;SHT30;66893;44.316;0.092;2023-02-28T01:15:04;10.50;38.18
76785;SHT30;66893;44.316;0.092;2023-02-28T01:17:30;10.48;38.23
76785;SHT30;66893;44.316;0.092;2023-02-28T01:19:56;10.45;38.20
76785;SHT30;66893;44.316;0.092;2023-02-28T01:22:21;10.45;38.22
76785;SHT30;66893;44.316;0.092;2023-02-28T01:24:47;10.42;38.22
76785;SHT30;66893;44.316;0.092;2023-02-28T01:27:13;10.42;38.20
76785;SHT30;66893;44.316;0.092;2023-02-28T01:29:38;10.39;38.20
76785;SHT30;66893;44.316;0.092;2023-02-28T01:32:04;10.36;38.24
76785;SHT30;66893;44.316;0.092;2023-02-28T01:34:30;10.36;38.27
76785;SHT30;66893;44.316;0.092;2023-02-28T01:36:55;10.35;38.28
76785;SHT30;66893;44.316;0.092;2023-02-28T01:39:20;10.35;38.28
76785;SHT30;66893;44.316;0.092;2023-02-28T01:41:46;10.32;38.21
76785;SHT30;66893;44.316;0.092;2023-02-28T01:47:15;10.26;38.25
76785;SHT30;66893;44.316;0.092;2023-02-28T01:49:41;10.24;38.30
76785;SHT30;66893;44.316;0.092;2023-02-28T01:52:08;10.26;38.29
76785;SHT30;66893;44.316;0.092;2023-02-28T01:54:40;10.25;38.26
76785;SHT30;66893;44.316;0.092;2023-02-28T01:57:14;10.24;38.30
76785;SHT30;66893;44.316;0.092;2023-02-28T02:00:00;10.22;38.30
76785;SHT30;66893;44.316;0.092;2023-02-28T02:02:30;10.19;38.30
76785;SHT30;66893;44.316;0.092;2023-02-28T02:05:06;10.19;38.28
76785;SHT30;66893;44.316;0.092;2023-02-28T02:07:39;10.15;38.29
76785;SHT30;66893;44.316;0.092;2023-02-28T02:10:18;10.16;38.32
76785;SHT30;66893;44.316;0.092;2023-02-28T02:35:28;9.97;38.43
76785;SHT30;66893;44.316;0.092;2023-02-28T02:38:31;9.97;38.41
76785;SHT30;66893;44.316;0.092;2023-02-28T02:46:33;9.95;38.43
76785;SHT30;66893;44.316;0.092;2023-02-28T02:49:06;9.94;38.46
76785;SHT30;66893;44.316;0.092;2023-02-28T02:51:33;9.88;38.44
76785;SHT30;66893;44.316;0.092;2023-02-28T02:54:13;9.88;38.45
76785;SHT30;66893;44.316;0.092;2023-02-28T02:56:43;9.87;38.39
76785;SHT30;66893;44.316;0.092;2023-02-28T02:59:12;9.87;38.40
76785;SHT30;66893;44.316;0.092;2023-02-28T03:01:40;9.84;38.39
76785;SHT30;66893;44.316;0.092;2023-02-28T03:04:10;9.83;38.42
76785;SHT30;66893;44.316;0.092;2023-02-28T03:06:37;9.83;38.37
76785;SHT30;66893;44.316;0.092;2023-02-28T03:09:03;9.81;38.36
76785;SHT30;66893;44.316;0.092;2023-02-28T03:11:29;9.79;38.41
76785;SHT30;66893;44.316;0.092;2023-02-28T03:24:34;9.71;38.41
76785;SHT30;66893;44.316;0.092;2023-02-28T03:27:27;9.70;38.43
76785;SHT30;66893;44.316;0.092;2023-02-28T03:30:06;9.69;38.42
76785;SHT30;66893;44.316;0.092;2023-02-28T03:32:50;9.70;38.42
76785;SHT30;66893;44.316;0.092;2023-02-28T03:35:23;9.66;38.43
76785;SHT30;66893;44.316;0.092;2023-02-28T03:37:55;9.64;38.43
76785;SHT30;66893;44.316;0.092;2023-02-28T03:40:28;9.60;38.47
76785;SHT30;66893;44.316;0.092;2023-02-28T03:43:01;9.61;38.40
76785;SHT30;66893;44.316;0.092;2023-02-28T03:45:33;9.61;38.48
76785;SHT30;66893;44.316;0.092;2023-02-28T03:50:39;9.60;38.45
76785;SHT30;66893;44.316;0.092;2023-02-28T03:53:25;9.59;38.49
76785;SHT30;66893;44.316;0.092;2023-02-28T03:56:13;9.56;38.48
76785;SHT30;66893;44.316;0.092;2023-02-28T03:58:47;9.56;38.50
76785;SHT30;66893;44.316;0.092;2023-02-28T04:01:22;9.54;38.49
76785;SHT30;66893;44.316;0.092;2023-02-28T04:03:49;9.53;38.56
76785;SHT30;66893;44.316;0.092;2023-02-28T04:06:20;9.53;38.53
76785;SHT30;66893;44.316;0.092;2023-02-28T04:08:46;9.50;38.51
76785;SHT30;66893;44.316;0.092;2023-02-28T04:11:38;9.50;38.57
76785;SHT30;66893;44.316;0.092;2023-02-28T04:14:05;9.47;38.54
76785;SHT30;66893;44.316;0.092;2023-02-28T04:16:32;9.49;38.55
76785;SHT30;66893;44.316;0.092;2023-02-28T04:18:58;9.44;38.55
76785;SHT30;66893;44.316;0.092;2023-02-28T04:21:35;9.44;38.60
76785;SHT30;66893;44.316;0.092;2023-02-28T04:24:00;9.43;38.57
76785;SHT30;66893;44.316;0.092;2023-02-28T04:26:33;9.42;38.56
76785;SHT30;66893;44.316;0.092;2023-02-28T04:29:00;9.40;38.57
76785;SHT30;66893;44.316;0.092;2023-02-28T04:31:26;9.39;38.59
76785;SHT30;66893;44.316;0.092;2023-02-28T04:33:51;9.39;38.64
76785;SHT30;66893;44.316;0.092;2023-02-28T04:36:17;9.39;38.58
76785;SHT30;66893;44.316;0.092;2023-02-28T04:38:44;9.38;38.59
76785;SHT30;66893;44.316;0.092;2023-02-28T04:41:10;9.39;38.64
76785;SHT30;66893;44.316;0.092;2023-02-28T04:43:35;9.36;38.67
76785;SHT30;66893;44.316;0.092;2023-02-28T04:46:02;9.33;38.69
76785;SHT30;66893;44.316;0.092;2023-02-28T04:48:29;9.35;38.72
76785;SHT30;66893;44.316;0.092;2023-02-28T04:50:59;9.33;38.68
76785;SHT30;66893;44.316;0.092;2023-02-28T04:53:25;9.32;38.70
76785;SHT30;66893;44.316;0.092;2023-02-28T04:55:50;9.32;38.70
76785;SHT30;66893;44.316;0.092;2023-02-28T04:58:15;9.32;38.70
76785;SHT30;66893;44.316;0.092;2023-02-28T05:00:41;9.33;38.73
76785;SHT30;66893;44.316;0.092;2023-02-28T05:03:06;9.28;38.75
76785;SHT30;66893;44.316;0.092;2023-02-28T05:05:32;9.29;38.75
76785;SHT30;66893;44.316;0.092;2023-02-28T05:07:57;9.28;38.77
76785;SHT30;66893;44.316;0.092;2023-02-28T05:10:23;9.26;38.77
76785;SHT30;66893;44.316;0.092;2023-02-28T05:12:48;9.29;38.76
76785;SHT30;66893;44.316;0.092;2023-02-28T05:15:15;9.25;38.81
76785;SHT30;66893;44.316;0.092;2023-02-28T05:17:41;9.24;38.82
76785;SHT30;66893;44.316;0.092;2023-02-28T05:20:08;9.25;38.83
76785;SHT30;66893;44.316;0.092;2023-02-28T05:22:36;9.24;38.87
76785;SHT30;66893;44.316;0.092;2023-02-28T05:25:03;9.19;38.86
76785;SHT30;66893;44.316;0.092;2023-02-28T05:27:30;9.22;38.87
76785;SHT30;66893;44.316;0.092;2023-02-28T05:29:55;9.19;38.87
76785;SHT30;66893;44.316;0.092;2023-02-28T05:32:21;9.19;38.84
76785;SHT30;66893;44.316;0.092;2023-02-28T05:34:47;9.21;38.92
76785;SHT30;66893;44.316;0.092;2023-02-28T05:37:13;9.19;38.88
76785;SHT30;66893;44.316;0.092;2023-02-28T05:39:39;9.19;38.89
76785;SHT30;66893;44.316;0.092;2023-02-28T05:42:05;9.15;38.92
76785;SHT30;66893;44.316;0.092;2023-02-28T05:44:30;9.15;38.92
76785;SHT30;66893;44.316;0.092;2023-02-28T05:46:56;9.14;38.88
76785;SHT30;66893;44.316;0.092;2023-02-28T05:49:21;9.15;38.96
76785;SHT30;66893;44.316;0.092;2023-02-28T05:51:47;9.15;38.91
76785;SHT30;66893;44.316;0.092;2023-02-28T05:54:12;9.11;38.93
76785;SHT30;66893;44.316;0.092;2023-02-28T05:56:38;9.11;38.98
76785;SHT30;66893;44.316;0.092;2023-02-28T05:59:05;9.11;38.99
76785;SHT30;66893;44.316;0.092;2023-02-28T06:01:39;9.10;38.94
76785;SHT30;66893;44.316;0.092;2023-02-28T06:04:07;9.10;38.94
76785;SHT30;66893;44.316;0.092;2023-02-28T06:06:33;9.08;38.99
76785;SHT30;66893;44.316;0.092;2023-02-28T06:09:05;9.07;39.02
76785;SHT30;66893;44.316;0.092;2023-02-28T06:11:32;9.05;39.01
76785;SHT30;66893;44.316;0.092;2023-02-28T06:13:58;9.07;38.99
76785;SHT30;66893;44.316;0.092;2023-02-28T06:16:29;9.07;39.00
76785;SHT30;66893;44.316;0.092;2023-02-28T06:18:57;9.05;39.02
76785;SHT30;66893;44.316;0.092;2023-02-28T06:21:22;9.04;39.02
76785;SHT30;66893;44.316;0.092;2023-02-28T06:23:48;9.05;39.00
76785;SHT30;66893;44.316;0.092;2023-02-28T06:26:13;9.01;39.06
76785;SHT30;66893;44.316;0.092;2023-02-28T06:28:39;9.01;39.03
76785;SHT30;66893;44.316;0.092;2023-02-28T06:31:09;9.01;39.06
76785;SHT30;66893;44.316;0.092;2023-02-28T06:33:37;9.00;39.03
76785;SHT30;66893;44.316;0.092;2023-02-28T06:36:03;8.98;39.12
76785;SHT30;66893;44.316;0.092;2023-02-28T06:38:29;9.00;39.12
76785;SHT30;66893;44.316;0.092;2023-02-28T06:40:55;8.98;39.11
76785;SHT30;66893;44.316;0.092;2023-02-28T06:43:22;8.97;39.11
76785;SHT30;66893;44.316;0.092;2023-02-28T06:45:48;8.97;39.18
76785;SHT30;66893;44.316;0.092;2023-02-28T06:48:14;8.97;39.16
76785;SHT30;66893;44.316;0.092;2023-02-28T06:50:40;8.95;39.18
76785;SHT30;66893;44.316;0.092;2023-02-28T06:53:05;8.95;39.18
76785;SHT30;66893;44.316;0.092;2023-02-28T06:55:31;8.97;39.19
76785;SHT30;66893;44.316;0.092;2023-02-28T06:57:57;8.97;39.26
76785;SHT30;66893;44.316;0.092;2023-02-28T07:00:24;9.00;39.26
76785;SHT30;66893;44.316;0.092;2023-02-28T07:02:50;9.01;39.26
76785;SHT30;66893;44.316;0.092;2023-02-28T07:05:16;9.01;39.29
76785;SHT30;66893;44.316;0.092;2023-02-28T07:07:41;9.04;39.30
76785;SHT30;66893;44.316;0.092;2023-02-28T07:10:12;9.01;39.36
76785;SHT30;66893;44.316;0.092;2023-02-28T07:12:38;9.07;39.38
76785;SHT30;66893;44.316;0.092;2023-02-28T07:15:05;9.07;39.41
76785;SHT30;66893;44.316;0.092;2023-02-28T07:17:30;9.05;39.41
76785;SHT30;66893;44.316;0.092;2023-02-28T07:19:56;9.10;39.42
76785;SHT30;66893;44.316;0.092;2023-02-28T07:22:21;9.08;39.50
76785;SHT30;66893;44.316;0.092;2023-02-28T07:24:47;9.11;39.48
76785;SHT30;66893;44.316;0.092;2023-02-28T07:27:13;9.10;39.55
76785;SHT30;66893;44.316;0.092;2023-02-28T07:29:51;9.14;39.49
76785;SHT30;66893;44.316;0.092;2023-02-28T07:32:17;9.11;39.53
76785;SHT30;66893;44.316;0.092;2023-02-28T07:34:44;9.10;39.46
76785;SHT30;66893;44.316;0.092;2023-02-28T07:37:09;9.04;39.64
76785;SHT30;66893;44.316;0.092;2023-02-28T07:39:35;9.04;39.81
76785;SHT30;66893;44.316;0.092;2023-02-28T07:42:05;9.07;39.90
76785;SHT30;66893;44.316;0.092;2023-02-28T07:44:31;9.07;39.91
76785;SHT30;66893;44.316;0.092;2023-02-28T07:46:57;9.05;39.93
76785;SHT30;66893;44.316;0.092;2023-02-28T07:49:23;9.11;39.94
76785;SHT30;66893;44.316;0.092;2023-02-28T07:51:48;9.14;40.39
76785;SHT30;66893;44.316;0.092;2023-02-28T07:54:14;9.15;40.57
76785;SHT30;66893;44.316;0.092;2023-02-28T07:56:39;9.16;40.63
76785;SHT30;66893;44.316;0.092;2023-02-28T07:59:05;9.15;40.62
76785;SHT30;66893;44.316;0.092;2023-02-28T08:01:30;9.18;40.74
76785;SHT30;66893;44.316;0.092;2023-02-28T08:03:56;9.15;40.73
76785;SHT30;66893;44.316;0.092;2023-02-28T08:06:25;9.18;40.83
76785;SHT30;66893;44.316;0.092;2023-02-28T08:08:52;9.18;40.84
76785;SHT30;66893;44.316;0.092;2023-02-28T08:11:18;9.22;40.83
76785;SHT30;66893;44.316;0.092;2023-02-28T08:13:44;9.22;40.77
76785;SHT30;66893;44.316;0.092;2023-02-28T08:16:11;9.24;40.79
76785;SHT30;66893;44.316;0.092;2023-02-28T08:18:37;9.29;40.82
76785;SHT30;66893;44.316;0.092;2023-02-28T08:21:07;9.29;40.92
76785;SHT30;66893;44.316;0.092;2023-02-28T08:23:33;9.31;40.94
76785;SHT30;66893;44.316;0.092;2023-02-28T08:25:58;9.35;41.04
76785;SHT30;66893;44.316;0.092;2023-02-28T08:28:24;9.38;41.04
76785;SHT30;66893;44.316;0.092;2023-02-28T08:30:50;9.39;41.01
76785;SHT30;66893;44.316;0.092;2023-02-28T08:33:15;9.42;41.03
76785;SHT30;66893;44.316;0.092;2023-02-28T08:35:41;9.46;41.03
76785;SHT30;66893;44.316;0.092;2023-02-28T08:38:06;9.50;40.95
76785;SHT30;66893;44.316;0.092;2023-02-28T08:40:31;9.52;41.01
76785;SHT30;66893;44.316;0.092;2023-02-28T08:42:57;9.53;40.95
76785;SHT30;66893;44.316;0.092;2023-02-28T08:45:23;9.57;40.93
76785;SHT30;66893;44.316;0.092;2023-02-28T08:47:49;9.64;40.98
76785;SHT30;66893;44.316;0.092;2023-02-28T08:50:17;9.66;40.83
76785;SHT30;66893;44.316;0.092;2023-02-28T08:52:43;9.69;40.89
76785;SHT30;66893;44.316;0.092;2023-02-28T08:55:09;9.73;40.77
76785;SHT30;66893;44.316;0.092;2023-02-28T08:57:35;9.74;40.70
76785;SHT30;66893;44.316;0.092;2023-02-28T09:00:00;9.80;40.35
76785;SHT30;66893;44.316;0.092;2023-02-28T09:02:32;9.80;40.35
76785;SHT30;66893;44.316;0.092;2023-02-28T09:04:58;9.83;40.33
76785;SHT30;66893;44.316;0.092;2023-02-28T09:07:24;9.86;40.24
76785;SHT30;66893;44.316;0.092;2023-02-28T09:09:49;9.88;40.28
76785;SHT30;66893;44.316;0.092;2023-02-28T09:12:28;9.91;40.25
76785;SHT30;66893;44.316;0.092;2023-02-28T09:14:57;9.93;40.19
76785;SHT30;66893;44.316;0.092;2023-02-28T09:17:22;9.95;40.13
76785;SHT30;66893;44.316;0.092;2023-02-28T09:19:48;9.98;40.10
76785;SHT30;66893;44.316;0.092;2023-02-28T09:22:14;10.01;40.08
76785;SHT30;66893;44.316;0.092;2023-02-28T09:24:40;10.04;40.10
76785;SHT30;66893;44.316;0.092;2023-02-28T09:27:05;10.09;40.03
76785;SHT30;66893;44.316;0.092;2023-02-28T09:29:32;10.14;40.03
76785;SHT30;66893;44.316;0.092;2023-02-28T09:31:58;10.18;40.04
76785;SHT30;66893;44.316;0.092;2023-02-28T09:34:27;10.21;39.96
76785;SHT30;66893;44.316;0.092;2023-02-28T09:36:52;10.26;39.85
76785;SHT30;66893;44.316;0.092;2023-02-28T09:39:21;10.29;39.82
76785;SHT30;66893;44.316;0.092;2023-02-28T09:41:51;10.34;39.78
76785;SHT30;66893;44.316;0.092;2023-02-28T09:44:38;10.36;39.78
76785;SHT30;66893;44.316;0.092;2023-02-28T09:47:18;10.45;39.86
76785;SHT30;66893;44.316;0.092;2023-02-28T09:49:47;10.49;39.76
76785;SHT30;66893;44.316;0.092;2023-02-28T09:52:17;10.53;39.81
76785;SHT30;66893;44.316;0.092;2023-02-28T09:54:45;10.60;39.65
76785;SHT30;66893;44.316;0.092;2023-02-28T10:05:14;10.77;39.47
76785;SHT30;66893;44.316;0.092;2023-02-28T10:10:37;10.84;39.37
76785;SHT30;66893;44.316;0.092;2023-02-28T10:16:13;10.85;38.92
76785;SHT30;66893;44.316;0.092;2023-02-28T10:18:44;10.87;39.47
76785;SHT30;66893;44.316;0.092;2023-02-28T10:21:47;10.93;39.53
76785;SHT30;66893;44.316;0.092;2023-02-28T10:29:43;11.10;39.36
76785;SHT30;66893;44.316;0.092;2023-02-28T10:32:11;11.15;39.38
76785;SHT30;66893;44.316;0.092;2023-02-28T10:34:38;11.22;39.27
76785;SHT30;66893;44.316;0.092;2023-02-28T10:37:03;11.29;39.24
76785;SHT30;66893;44.316;0.092;2023-02-28T10:39:45;11.35;39.22
76785;SHT30;66893;44.316;0.092;2023-02-28T10:42:41;11.40;39.24
76785;SHT30;66893;44.316;0.092;2023-02-28T10:45:15;11.46;39.18
76785;SHT30;66893;44.316;0.092;2023-02-28T10:50:28;11.53;39.09
76785;SHT30;66893;44.316;0.092;2023-02-28T10:52:54;11.59;39.09
76785;SHT30;66893;44.316;0.092;2023-02-28T10:55:23;11.63;38.90
76785;SHT30;66893;44.316;0.092;2023-02-28T10:57:50;11.67;39.00
76785;SHT30;66893;44.316;0.092;2023-02-28T11:00:21;11.69;38.85
76785;SHT30;66893;44.316;0.092;2023-02-28T11:02:48;11.79;38.89
76785;SHT30;66893;44.316;0.092;2023-02-28T11:05:35;11.84;38.82
76785;SHT30;66893;44.316;0.092;2023-02-28T11:08:14;11.91;38.90
76785;SHT30;66893;44.316;0.092;2023-02-28T11:10:48;11.95;38.88
76785;SHT30;66893;44.316;0.092;2023-02-28T11:13:19;12.05;38.83
76785;SHT30;66893;44.316;0.092;2023-02-28T11:15:58;12.16;38.89
76785;SHT30;66893;44.316;0.092;2023-02-28T11:18:40;12.25;38.82
76785;SHT30;66893;44.316;0.092;2023-02-28T11:21:07;12.35;38.76
76785;SHT30;66893;44.316;0.092;2023-02-28T11:23:36;12.45;38.71
76785;SHT30;66893;44.316;0.092;2023-02-28T11:26:05;12.57;38.76
76785;SHT30;66893;44.316;0.092;2023-02-28T11:28:38;12.72;38.68
76785;SHT30;66893;44.316;0.092;2023-02-28T11:33:51;13.04;38.39
76785;SHT30;66893;44.316;0.092;2023-02-28T11:38:50;13.27;38.23
76785;SHT30;66893;44.316;0.092;2023-02-28T11:50:16;13.73;37.99
76785;SHT30;66893;44.316;0.092;2023-02-28T12:03:53;14.16;37.70
76785;SHT30;66893;44.316;0.092;2023-02-28T12:06:22;14.25;37.64
76785;SHT30;66893;44.316;0.092;2023-02-28T12:12:10;14.37;37.31
76785;SHT30;66893;44.316;0.092;2023-02-28T12:15:17;14.45;37.22
76785;SHT30;66893;44.316;0.092;2023-02-28T12:21:14;14.66;36.94
76785;SHT30;66893;44.316;0.092;2023-02-28T12:26:42;14.80;36.88
76785;SHT30;66893;44.316;0.092;2023-02-28T12:31:46;14.90;36.82
76785;SHT30;66893;44.316;0.092;2023-02-28T12:34:19;14.93;36.78
76785;SHT30;66893;44.316;0.092;2023-02-28T12:36:47;14.97;36.72
76785;SHT30;66893;44.316;0.092;2023-02-28T12:39:34;14.97;36.70
76785;SHT30;66893;44.316;0.092;2023-02-28T12:42:44;14.99;36.69
76785;SHT30;66893;44.316;0.092;2023-02-28T12:45:09;15.01;36.62
76785;SHT30;66893;44.316;0.092;2023-02-28T12:47:38;15.03;36.63
76785;SHT30;66893;44.316;0.092;2023-02-28T12:50:05;15.06;36.59
76785;SHT30;66893;44.316;0.092;2023-02-28T12:53:00;15.11;36.60
76785;SHT30;66893;44.316;0.092;2023-02-28T13:04:32;15.39;36.21
76785;SHT30;66893;44.316;0.092;2023-02-28T13:07:33;15.41;36.19
76785;SHT30;66893;44.316;0.092;2023-02-28T13:10:04;15.44;36.07
76785;SHT30;66893;44.316;0.092;2023-02-28T13:12:33;15.44;36.04
76785;SHT30;66893;44.316;0.092;2023-02-28T13:17:40;15.48;35.83
76785;SHT30;66893;44.316;0.092;2023-02-28T13:20:17;15.59;35.78
76785;SHT30;66893;44.316;0.092;2023-02-28T13:22:48;15.66;35.70
76785;SHT30;66893;44.316;0.092;2023-02-28T13:27:59;15.83;35.60
76785;SHT30;66893;44.316;0.092;2023-02-28T13:38:50;16.35;35.25
76785;SHT30;66893;44.316;0.092;2023-02-28T13:44:21;16.44;35.05
76785;SHT30;66893;44.316;0.092;2023-02-28T13:52:08;16.48;34.90
76785;SHT30;66893;44.316;0.092;2023-02-28T13:54:56;16.45;34.86
76785;SHT30;66893;44.316;0.092;2023-02-28T14:05:35;16.18;35.02
76785;SHT30;66893;44.316;0.092;2023-02-28T14:08:21;16.14;35.00
76785;SHT30;66893;44.316;0.092;2023-02-28T14:10:51;16.14;35.06
76785;SHT30;66893;44.316;0.092;2023-02-28T14:16:03;16.96;34.41
76785;SHT30;66893;44.316;0.092;2023-02-28T14:18:36;16.92;34.27
76785;SHT30;66893;44.316;0.092;2023-02-28T14:29:14;16.57;34.56
76785;SHT30;66893;44.316;0.092;2023-02-28T14:31:58;16.61;34.36
76785;SHT30;66893;44.316;0.092;2023-02-28T14:34:54;16.92;34.25
76785;SHT30;66893;44.316;0.092;2023-02-28T14:37:29;17.28;33.84
76785;SHT30;66893;44.316;0.092;2023-02-28T14:39:56;17.47;33.70
76785;SHT30;66893;44.316;0.092;2023-02-28T14:42:34;17.51;33.40
76785;SHT30;66893;44.316;0.092;2023-02-28T14:45:01;17.35;33.54
76785;SHT30;66893;44.316;0.092;2023-02-28T14:47:34;17.19;33.64
76785;SHT30;66893;44.316;0.092;2023-02-28T14:50:02;17.02;33.72
76785;SHT30;66893;44.316;0.092;2023-02-28T14:52:30;16.86;33.81
76785;SHT30;66893;44.316;0.092;2023-02-28T14:55:03;16.68;33.89
76785;SHT30;66893;44.316;0.092;2023-02-28T14:57:34;16.52;33.98
76785;SHT30;66893;44.316;0.092;2023-02-28T15:02:33;16.31;34.23
76785;SHT30;66893;44.316;0.092;2023-02-28T15:05:15;16.22;34.22
76785;SHT30;66893;44.316;0.092;2023-02-28T15:07:44;16.18;34.25
76785;SHT30;66893;44.316;0.092;2023-02-28T15:12:53;16.20;34.07
76785;SHT30;66893;44.316;0.092;2023-02-28T15:15:23;16.22;33.95
76785;SHT30;66893;44.316;0.092;2023-02-28T15:17:54;16.20;33.88
76785;SHT30;66893;44.316;0.092;2023-02-28T15:20:21;16.14;33.99
76785;SHT30;66893;44.316;0.092;2023-02-28T15:22:50;16.14;33.95
76785;SHT30;66893;44.316;0.092;2023-02-28T15:25:20;16.14;33.95
76785;SHT30;66893;44.316;0.092;2023-02-28T15:27:50;16.25;33.81
76785;SHT30;66893;44.316;0.092;2023-02-28T15:30:28;16.42;33.80
76785;SHT30;66893;44.316;0.092;2023-02-28T15:36:15;16.72;33.60
76785;SHT30;66893;44.316;0.092;2023-02-28T15:38:43;16.82;33.50
76785;SHT30;66893;44.316;0.092;2023-02-28T15:41:30;16.96;33.58
76785;SHT30;66893;44.316;0.092;2023-02-28T15:44:27;17.47;33.28
76785;SHT30;66893;44.316;0.092;2023-02-28T15:47:06;17.99;32.87
76785;SHT30;66893;44.316;0.092;2023-02-28T15:49:44;18.17;32.54
76785;SHT30;66893;44.316;0.092;2023-02-28T15:52:21;18.04;32.32
76785;SHT30;66893;44.316;0.092;2023-02-28T15:54:49;17.83;32.46
76785;SHT30;66893;44.316;0.092;2023-02-28T15:57:22;17.59;32.66
76785;SHT30;66893;44.316;0.092;2023-02-28T16:00:11;17.37;32.79
76785;SHT30;66893;44.316;0.092;2023-02-28T16:02:38;17.17;32.83
76785;SHT30;66893;44.316;0.092;2023-02-28T16:07:37;16.86;32.95
76785;SHT30;66893;44.316;0.092;2023-02-28T16:10:04;16.69;33.02
76785;SHT30;66893;44.316;0.092;2023-02-28T16:12:31;16.58;33.12
76785;SHT30;66893;44.316;0.092;2023-02-28T16:14:59;16.45;33.14
76785;SHT30;66893;44.316;0.092;2023-02-28T16:17:30;16.34;33.16
76785;SHT30;66893;44.316;0.092;2023-02-28T16:19:59;16.25;33.31
76785;SHT30;66893;44.316;0.092;2023-02-28T16:22:25;16.14;33.31
76785;SHT30;66893;44.316;0.092;2023-02-28T16:24:51;16.06;33.25
76785;SHT30;66893;44.316;0.092;2023-02-28T16:27:30;15.94;33.17
76785;SHT30;66893;44.316;0.092;2023-02-28T16:29:56;15.87;33.48
76785;SHT30;66893;44.316;0.092;2023-02-28T16:32:22;15.81;33.55
76785;SHT30;66893;44.316;0.092;2023-02-28T16:34:48;15.73;33.52
76785;SHT30;66893;44.316;0.092;2023-02-28T16:37:16;15.66;33.53
76785;SHT30;66893;44.316;0.092;2023-02-28T16:39:43;15.58;33.52
76785;SHT30;66893;44.316;0.092;2023-02-28T16:42:15;15.52;33.53
76785;SHT30;66893;44.316;0.092;2023-02-28T16:44:42;15.44;33.53
76785;SHT30;66893;44.316;0.092;2023-02-28T16:47:10;15.38;33.58
76785;SHT30;66893;44.316;0.092;2023-02-28T16:49:36;15.31;33.71
76785;SHT30;66893;44.316;0.092;2023-02-28T16:52:01;15.24;33.80
76785;SHT30;66893;44.316;0.092;2023-02-28T16:54:27;15.23;33.63
76785;SHT30;66893;44.316;0.092;2023-02-28T16:56:53;15.13;33.83
76785;SHT30;66893;44.316;0.092;2023-02-28T16:59:22;15.08;33.81
76785;SHT30;66893;44.316;0.092;2023-02-28T17:01:48;15.04;33.84
76785;SHT30;66893;44.316;0.092;2023-02-28T17:04:14;15.01;33.94
76785;SHT30;66893;44.316;0.092;2023-02-28T17:06:40;14.99;33.84
76785;SHT30;66893;44.316;0.092;2023-02-28T17:09:15;14.93;33.97
76785;SHT30;66893;44.316;0.092;2023-02-28T17:11:41;14.90;33.97
76785;SHT30;66893;44.316;0.092;2023-02-28T17:14:06;14.83;33.99
76785;SHT30;66893;44.316;0.092;2023-02-28T17:16:33;14.80;33.86
76785;SHT30;66893;44.316;0.092;2023-02-28T17:19:03;14.72;33.99
76785;SHT30;66893;44.316;0.092;2023-02-28T17:21:29;14.72;34.00
76785;SHT30;66893;44.316;0.092;2023-02-28T17:23:55;14.68;34.00
76785;SHT30;66893;44.316;0.092;2023-02-28T17:26:22;14.62;34.05
76785;SHT30;66893;44.316;0.092;2023-02-28T17:28:51;14.56;33.96
76785;SHT30;66893;44.316;0.092;2023-02-28T17:31:17;14.51;34.14
76785;SHT30;66893;44.316;0.092;2023-02-28T17:33:43;14.48;34.10
76785;SHT30;66893;44.316;0.092;2023-02-28T17:36:13;14.45;34.05
76785;SHT30;66893;44.316;0.092;2023-02-28T17:38:40;14.42;34.19
76785;SHT30;66893;44.316;0.092;2023-02-28T17:41:05;14.41;34.05
76785;SHT30;66893;44.316;0.092;2023-02-28T17:43:31;14.39;34.17
76785;SHT30;66893;44.316;0.092;2023-02-28T17:45:56;14.37;34.10
76785;SHT30;66893;44.316;0.092;2023-02-28T17:48:23;14.34;34.18
76785;SHT30;66893;44.316;0.092;2023-02-28T17:50:49;14.31;34.12
76785;SHT30;66893;44.316;0.092;2023-02-28T17:53:14;14.28;34.21
76785;SHT30;66893;44.316;0.092;2023-02-28T17:55:40;14.25;34.24
76785;SHT30;66893;44.316;0.092;2023-02-28T17:58:05;14.20;33.96
76785;SHT30;66893;44.316;0.092;2023-02-28T18:00:31;14.16;34.03
76785;SHT30;66893;44.316;0.092;2023-02-28T18:02:58;14.11;33.96
76785;SHT30;66893;44.316;0.092;2023-02-28T18:05:24;14.07;33.99
76785;SHT30;66893;44.316;0.092;2023-02-28T18:07:50;14.04;33.88
76785;SHT30;66893;44.316;0.092;2023-02-28T18:10:18;14.01;33.93
76785;SHT30;66893;44.316;0.092;2023-02-28T18:12:48;13.99;33.95
76785;SHT30;66893;44.316;0.092;2023-02-28T18:15:15;13.99;34.08
76785;SHT30;66893;44.316;0.092;2023-02-28T18:17:41;13.91;33.96
76785;SHT30;66893;44.316;0.092;2023-02-28T18:20:08;13.91;34.04
76785;SHT30;66893;44.316;0.092;2023-02-28T18:22:35;13.87;34.01
76785;SHT30;66893;44.316;0.092;2023-02-28T18:25:04;13.84;34.03
76785;SHT30;66893;44.316;0.092;2023-02-28T18:27:30;13.80;34.04
76785;SHT30;66893;44.316;0.092;2023-02-28T18:29:55;13.77;34.03
76785;SHT30;66893;44.316;0.092;2023-02-28T18:32:21;13.74;34.15
76785;SHT30;66893;44.316;0.092;2023-02-28T18:34:46;13.76;34.01
76785;SHT30;66893;44.316;0.092;2023-02-28T18:37:12;13.72;34.19